sensor_id;sensor_type;location;lat;lon;timestamp;P1;durP1;ratioP1;P2;durP2;ratioP2
39782;SDS011;25462;51.164;17.100;2023-07-20T00:00:36;4.60;;;2.40;;
39782;SDS011;25462;51.164;17.100;2023-07-20T00:06:00;6.40;;;2.50;;
39782;SDS011;25462;51.164;17.100;2023-07-20T00:11:04;6.30;;;2.60;;
39782;SDS011;25462;51.164;17.100;2023-07-20T00:16:08;8.20;;;2.70;;
39782;SDS011;25462;51.164;17.100;2023-07-20T00:21:11;4.80;;;2.00;;
39782;SDS011;25462;51.164;17.100;2023-07-20T00:26:16;7.80;;;2.40;;
39782;SDS011;25462;51.164;17.100;2023-07-20T00:31:21;6.00;;;2.50;;
39782;SDS011;25462;51.164;17.100;2023-07-20T00:36:25;4.00;;;2.50;;
39782;SDS011;25462;51.164;17.100;2023-07-20T00:41:29;7.10;;;2.80;;
39782;SDS011;25462;51.164;17.100;2023-07-20T00:46:33;6.10;;;2.50;;
39782;SDS011;25462;51.164;17.100;2023-07-20T00:51:37;6.20;;;3.10;;
39782;SDS011;25462;51.164;17.100;2023-07-20T00:56:41;10.90;;;3.50;;
39782;SDS011;25462;51.164;17.100;2023-07-20T01:01:45;7.10;;;3.40;;
39782;SDS011;25462;51.164;17.100;2023-07-20T01:06:53;9.00;;;3.40;;
39782;SDS011;25462;51.164;17.100;2023-07-20T01:12:02;11.40;;;3.70;;
39782;SDS011;25462;51.164;17.100;2023-07-20T01:17:09;5.30;;;3.10;;
39782;SDS011;25462;51.164;17.100;2023-07-20T01:22:31;8.30;;;3.20;;
39782;SDS011;25462;51.164;17.100;2023-07-20T01:27:57;5.40;;;3.10;;
39782;SDS011;25462;51.164;17.100;2023-07-20T01:33:13;8.80;;;3.20;;
39782;SDS011;25462;51.164;17.100;2023-07-20T01:38:18;6.20;;;3.90;;
39782;SDS011;25462;51.164;17.100;2023-07-20T01:43:24;8.30;;;3.80;;
39782;SDS011;25462;51.164;17.100;2023-07-20T01:48:28;8.00;;;4.30;;
39782;SDS011;25462;51.164;17.100;2023-07-20T01:53:32;8.00;;;4.60;;
39782;SDS011;25462;51.164;17.100;2023-07-20T01:58:36;8.40;;;4.30;;
39782;SDS011;25462;51.164;17.100;2023-07-20T02:03:40;7.10;;;3.50;;
39782;SDS011;25462;51.164;17.100;2023-07-20T02:08:44;5.20;;;3.00;;
39782;SDS011;25462;51.164;17.100;2023-07-20T02:13:48;7.90;;;3.40;;
39782;SDS011;25462;51.164;17.100;2023-07-20T02:18:52;4.80;;;2.90;;
39782;SDS011;25462;51.164;17.100;2023-07-20T02:23:56;7.10;;;3.70;;
39782;SDS011;25462;51.164;17.100;2023-07-20T02:29:00;7.40;;;3.70;;
39782;SDS011;25462;51.164;17.100;2023-07-20T02:34:04;5.10;;;3.50;;
39782;SDS011;25462;51.164;17.100;2023-07-20T02:39:08;7.20;;;3.50;;
39782;SDS011;25462;51.164;17.100;2023-07-20T02:44:13;6.20;;;4.00;;
39782;SDS011;25462;51.164;17.100;2023-07-20T02:49:17;10.70;;;4.80;;
39782;SDS011;25462;51.164;17.100;2023-07-20T02:54:22;7.50;;;3.60;;
39782;SDS011;25462;51.164;17.100;2023-07-20T02:59:25;12.30;;;4.10;;
39782;SDS011;25462;51.164;17.100;2023-07-20T03:04:30;6.50;;;3.60;;
39782;SDS011;25462;51.164;17.100;2023-07-20T03:09:34;6.40;;;3.30;;
39782;SDS011;25462;51.164;17.100;2023-07-20T03:14:38;13.40;;;3.70;;
39782;SDS011;25462;51.164;17.100;2023-07-20T03:19:41;7.30;;;3.20;;
39782;SDS011;25462;51.164;17.100;2023-07-20T03:24:46;8.30;;;3.50;;
39782;SDS011;25462;51.164;17.100;2023-07-20T03:29:51;10.40;;;4.00;;
39782;SDS011;25462;51.164;17.100;2023-07-20T03:34:55;5.60;;;3.80;;
39782;SDS011;25462;51.164;17.100;2023-07-20T03:39:59;10.10;;;3.70;;
39782;SDS011;25462;51.164;17.100;2023-07-20T03:45:03;5.70;;;3.80;;
39782;SDS011;25462;51.164;17.100;2023-07-20T03:50:08;10.20;;;4.30;;
39782;SDS011;25462;51.164;17.100;2023-07-20T03:55:13;6.40;;;4.00;;
39782;SDS011;25462;51.164;17.100;2023-07-20T04:00:17;6.20;;;3.50;;
39782;SDS011;25462;51.164;17.100;2023-07-20T04:05:21;9.20;;;4.80;;
39782;SDS011;25462;51.164;17.100;2023-07-20T04:10:25;7.50;;;4.40;;
39782;SDS011;25462;51.164;17.100;2023-07-20T04:15:29;9.90;;;4.80;;
39782;SDS011;25462;51.164;17.100;2023-07-20T04:20:33;7.00;;;4.50;;
39782;SDS011;25462;51.164;17.100;2023-07-20T04:25:39;8.40;;;3.90;;
39782;SDS011;25462;51.164;17.100;2023-07-20T04:30:48;5.90;;;3.90;;
39782;SDS011;25462;51.164;17.100;2023-07-20T04:35:53;6.10;;;3.80;;
39782;SDS011;25462;51.164;17.100;2023-07-20T04:41:04;6.70;;;3.90;;
39782;SDS011;25462;51.164;17.100;2023-07-20T04:46:12;6.40;;;4.10;;
39782;SDS011;25462;51.164;17.100;2023-07-20T04:51:18;7.30;;;4.10;;
39782;SDS011;25462;51.164;17.100;2023-07-20T04:56:26;7.60;;;4.50;;
39782;SDS011;25462;51.164;17.100;2023-07-20T05:01:31;7.10;;;3.90;;
39782;SDS011;25462;51.164;17.100;2023-07-20T05:06:36;8.60;;;4.40;;
39782;SDS011;25462;51.164;17.100;2023-07-20T05:11:40;7.20;;;4.30;;
39782;SDS011;25462;51.164;17.100;2023-07-20T05:16:43;8.20;;;4.40;;
39782;SDS011;25462;51.164;17.100;2023-07-20T05:21:47;9.10;;;4.40;;
39782;SDS011;25462;51.164;17.100;2023-07-20T05:26:52;6.90;;;4.10;;
39782;SDS011;25462;51.164;17.100;2023-07-20T05:31:56;7.90;;;4.80;;
39782;SDS011;25462;51.164;17.100;2023-07-20T05:36:59;5.60;;;3.80;;
39782;SDS011;25462;51.164;17.100;2023-07-20T05:42:03;5.90;;;4.20;;
39782;SDS011;25462;51.164;17.100;2023-07-20T05:47:07;12.30;;;5.00;;
39782;SDS011;25462;51.164;17.100;2023-07-20T05:52:11;14.60;;;5.00;;
39782;SDS011;25462;51.164;17.100;2023-07-20T05:57:15;5.80;;;3.90;;
39782;SDS011;25462;51.164;17.100;2023-07-20T06:02:19;6.50;;;4.60;;
39782;SDS011;25462;51.164;17.100;2023-07-20T06:07:23;9.00;;;4.70;;
39782;SDS011;25462;51.164;17.100;2023-07-20T06:12:27;10.10;;;5.00;;
39782;SDS011;25462;51.164;17.100;2023-07-20T06:17:31;9.70;;;5.40;;
39782;SDS011;25462;51.164;17.100;2023-07-20T06:22:36;8.80;;;5.60;;
39782;SDS011;25462;51.164;17.100;2023-07-20T06:27:40;8.90;;;5.30;;
39782;SDS011;25462;51.164;17.100;2023-07-20T06:32:47;7.90;;;4.40;;
39782;SDS011;25462;51.164;17.100;2023-07-20T06:37:52;11.40;;;4.60;;
39782;SDS011;25462;51.164;17.100;2023-07-20T06:42:56;8.20;;;5.30;;
39782;SDS011;25462;51.164;17.100;2023-07-20T06:48:03;9.60;;;4.30;;
39782;SDS011;25462;51.164;17.100;2023-07-20T06:53:08;10.00;;;4.50;;
39782;SDS011;25462;51.164;17.100;2023-07-20T06:58:12;7.70;;;4.50;;
39782;SDS011;25462;51.164;17.100;2023-07-20T07:03:16;10.70;;;4.80;;
39782;SDS011;25462;51.164;17.100;2023-07-20T07:08:20;7.40;;;4.50;;
39782;SDS011;25462;51.164;17.100;2023-07-20T07:13:24;11.60;;;4.40;;
39782;SDS011;25462;51.164;17.100;2023-07-20T07:18:28;8.80;;;4.70;;
39782;SDS011;25462;51.164;17.100;2023-07-20T07:23:33;7.10;;;4.40;;
39782;SDS011;25462;51.164;17.100;2023-07-20T07:28:37;7.60;;;3.90;;
39782;SDS011;25462;51.164;17.100;2023-07-20T07:33:41;10.90;;;4.50;;
39782;SDS011;25462;51.164;17.100;2023-07-20T07:38:44;7.90;;;4.40;;
39782;SDS011;25462;51.164;17.100;2023-07-20T07:44:08;5.00;;;3.70;;
39782;SDS011;25462;51.164;17.100;2023-07-20T07:49:12;9.10;;;4.20;;
39782;SDS011;25462;51.164;17.100;2023-07-20T07:54:16;5.40;;;2.90;;
39782;SDS011;25462;51.164;17.100;2023-07-20T07:59:20;6.40;;;3.70;;
39782;SDS011;25462;51.164;17.100;2023-07-20T08:04:24;6.70;;;3.40;;
39782;SDS011;25462;51.164;17.100;2023-07-20T08:09:27;4.50;;;2.80;;
39782;SDS011;25462;51.164;17.100;2023-07-20T08:14:31;6.30;;;3.40;;
39782;SDS011;25462;51.164;17.100;2023-07-20T08:19:36;7.60;;;3.10;;
39782;SDS011;25462;51.164;17.100;2023-07-20T08:24:48;4.50;;;2.70;;
39782;SDS011;25462;51.164;17.100;2023-07-20T08:29:52;3.90;;;2.80;;
39782;SDS011;25462;51.164;17.100;2023-07-20T08:34:56;5.00;;;2.40;;
39782;SDS011;25462;51.164;17.100;2023-07-20T08:40:00;6.20;;;2.50;;
39782;SDS011;25462;51.164;17.100;2023-07-20T08:45:05;4.30;;;1.90;;
39782;SDS011;25462;51.164;17.100;2023-07-20T08:50:11;4.90;;;2.00;;
39782;SDS011;25462;51.164;17.100;2023-07-20T08:55:22;3.30;;;1.80;;
39782;SDS011;25462;51.164;17.100;2023-07-20T09:00:27;2.60;;;1.80;;
39782;SDS011;25462;51.164;17.100;2023-07-20T09:05:33;2.50;;;1.70;;
39782;SDS011;25462;51.164;17.100;2023-07-20T09:10:38;4.00;;;2.10;;
39782;SDS011;25462;51.164;17.100;2023-07-20T09:15:46;3.10;;;2.00;;
39782;SDS011;25462;51.164;17.100;2023-07-20T09:20:51;4.10;;;2.00;;
39782;SDS011;25462;51.164;17.100;2023-07-20T09:25:57;3.50;;;2.10;;
39782;SDS011;25462;51.164;17.100;2023-07-20T09:31:02;3.50;;;1.60;;
39782;SDS011;25462;51.164;17.100;2023-07-20T09:36:19;3.00;;;1.40;;
39782;SDS011;25462;51.164;17.100;2023-07-20T09:41:44;3.70;;;1.40;;
39782;SDS011;25462;51.164;17.100;2023-07-20T09:46:49;3.70;;;1.50;;
39782;SDS011;25462;51.164;17.100;2023-07-20T09:52:00;3.90;;;1.50;;
39782;SDS011;25462;51.164;17.100;2023-07-20T09:57:09;2.70;;;1.30;;
39782;SDS011;25462;51.164;17.100;2023-07-20T10:02:23;2.70;;;1.30;;
39782;SDS011;25462;51.164;17.100;2023-07-20T10:07:29;1.80;;;1.30;;
39782;SDS011;25462;51.164;17.100;2023-07-20T10:12:34;1.70;;;1.10;;
39782;SDS011;25462;51.164;17.100;2023-07-20T10:17:40;4.70;;;1.70;;
39782;SDS011;25462;51.164;17.100;2023-07-20T10:23:11;2.10;;;1.10;;
39782;SDS011;25462;51.164;17.100;2023-07-20T10:28:16;2.20;;;1.20;;
39782;SDS011;25462;51.164;17.100;2023-07-20T10:33:20;2.30;;;1.30;;
39782;SDS011;25462;51.164;17.100;2023-07-20T10:44:01;1.80;;;1.10;;
39782;SDS011;25462;51.164;17.100;2023-07-20T10:49:10;2.30;;;1.20;;
39782;SDS011;25462;51.164;17.100;2023-07-20T10:59:20;2.80;;;1.20;;
39782;SDS011;25462;51.164;17.100;2023-07-20T11:04:45;2.60;;;1.20;;
39782;SDS011;25462;51.164;17.100;2023-07-20T11:09:49;2.20;;;1.40;;
39782;SDS011;25462;51.164;17.100;2023-07-20T11:14:58;2.40;;;1.40;;
39782;SDS011;25462;51.164;17.100;2023-07-20T11:20:02;2.40;;;1.60;;
39782;SDS011;25462;51.164;17.100;2023-07-20T11:25:10;3.00;;;1.40;;
39782;SDS011;25462;51.164;17.100;2023-07-20T11:30:17;2.40;;;1.50;;
39782;SDS011;25462;51.164;17.100;2023-07-20T11:35:21;2.40;;;1.20;;
39782;SDS011;25462;51.164;17.100;2023-07-20T11:40:25;3.10;;;1.20;;
39782;SDS011;25462;51.164;17.100;2023-07-20T11:45:29;3.00;;;1.30;;
39782;SDS011;25462;51.164;17.100;2023-07-20T11:50:39;2.80;;;1.30;;
39782;SDS011;25462;51.164;17.100;2023-07-20T11:55:43;3.20;;;1.60;;
39782;SDS011;25462;51.164;17.100;2023-07-20T12:00:47;3.20;;;1.50;;
39782;SDS011;25462;51.164;17.100;2023-07-20T12:05:51;3.90;;;1.90;;
39782;SDS011;25462;51.164;17.100;2023-07-20T12:11:04;4.50;;;1.60;;
39782;SDS011;25462;51.164;17.100;2023-07-20T12:16:11;4.20;;;2.30;;
39782;SDS011;25462;51.164;17.100;2023-07-20T12:21:17;6.20;;;1.70;;
39782;SDS011;25462;51.164;17.100;2023-07-20T12:26:22;3.70;;;1.50;;
39782;SDS011;25462;51.164;17.100;2023-07-20T12:31:28;3.30;;;1.70;;
39782;SDS011;25462;51.164;17.100;2023-07-20T12:36:33;3.10;;;1.80;;
39782;SDS011;25462;51.164;17.100;2023-07-20T12:41:37;4.10;;;1.60;;
39782;SDS011;25462;51.164;17.100;2023-07-20T12:46:41;2.50;;;1.60;;
39782;SDS011;25462;51.164;17.100;2023-07-20T12:51:45;3.60;;;2.00;;
39782;SDS011;25462;51.164;17.100;2023-07-20T12:56:51;3.40;;;1.90;;
39782;SDS011;25462;51.164;17.100;2023-07-20T13:01:57;2.90;;;1.80;;
39782;SDS011;25462;51.164;17.100;2023-07-20T13:07:03;4.80;;;1.70;;
39782;SDS011;25462;51.164;17.100;2023-07-20T13:12:27;4.50;;;1.20;;
39782;SDS011;25462;51.164;17.100;2023-07-20T13:17:32;3.10;;;1.40;;
39782;SDS011;25462;51.164;17.100;2023-07-20T13:22:37;1.80;;;1.10;;
39782;SDS011;25462;51.164;17.100;2023-07-20T13:27:41;2.30;;;1.40;;
39782;SDS011;25462;51.164;17.100;2023-07-20T13:32:45;2.00;;;1.40;;
39782;SDS011;25462;51.164;17.100;2023-07-20T13:37:49;2.20;;;1.40;;
39782;SDS011;25462;51.164;17.100;2023-07-20T13:42:55;4.00;;;1.50;;
39782;SDS011;25462;51.164;17.100;2023-07-20T13:47:59;3.60;;;1.40;;
39782;SDS011;25462;51.164;17.100;2023-07-20T13:53:05;1.90;;;1.30;;
39782;SDS011;25462;51.164;17.100;2023-07-20T13:58:12;1.90;;;1.10;;
39782;SDS011;25462;51.164;17.100;2023-07-20T14:03:16;2.80;;;1.00;;
39782;SDS011;25462;51.164;17.100;2023-07-20T14:08:22;1.90;;;1.10;;
39782;SDS011;25462;51.164;17.100;2023-07-20T14:13:26;2.70;;;1.20;;
39782;SDS011;25462;51.164;17.100;2023-07-20T14:18:49;3.50;;;1.10;;
39782;SDS011;25462;51.164;17.100;2023-07-20T14:23:53;1.90;;;1.10;;
39782;SDS011;25462;51.164;17.100;2023-07-20T14:28:56;3.00;;;1.40;;
39782;SDS011;25462;51.164;17.100;2023-07-20T14:34:01;3.60;;;1.40;;
39782;SDS011;25462;51.164;17.100;2023-07-20T14:39:05;3.00;;;1.50;;
39782;SDS011;25462;51.164;17.100;2023-07-20T14:44:13;2.90;;;1.30;;
39782;SDS011;25462;51.164;17.100;2023-07-20T14:49:17;5.00;;;1.40;;
39782;SDS011;25462;51.164;17.100;2023-07-20T14:54:24;6.10;;;1.30;;
39782;SDS011;25462;51.164;17.100;2023-07-20T14:59:28;1.90;;;1.00;;
39782;SDS011;25462;51.164;17.100;2023-07-20T15:04:32;2.70;;;1.10;;
39782;SDS011;25462;51.164;17.100;2023-07-20T15:09:36;2.40;;;1.50;;
39782;SDS011;25462;51.164;17.100;2023-07-20T15:14:41;3.00;;;1.20;;
39782;SDS011;25462;51.164;17.100;2023-07-20T15:19:45;2.70;;;1.40;;
39782;SDS011;25462;51.164;17.100;2023-07-20T15:24:49;3.00;;;1.30;;
39782;SDS011;25462;51.164;17.100;2023-07-20T15:29:54;4.60;;;1.40;;
39782;SDS011;25462;51.164;17.100;2023-07-20T15:34:58;4.80;;;1.20;;
39782;SDS011;25462;51.164;17.100;2023-07-20T15:40:02;1.20;;;0.90;;
39782;SDS011;25462;51.164;17.100;2023-07-20T15:45:08;2.50;;;1.20;;
39782;SDS011;25462;51.164;17.100;2023-07-20T15:50:13;2.40;;;1.10;;
39782;SDS011;25462;51.164;17.100;2023-07-20T15:55:17;2.10;;;1.00;;
39782;SDS011;25462;51.164;17.100;2023-07-20T16:00:21;2.80;;;1.10;;
39782;SDS011;25462;51.164;17.100;2023-07-20T16:05:26;2.50;;;1.20;;
39782;SDS011;25462;51.164;17.100;2023-07-20T16:10:36;3.90;;;1.20;;
39782;SDS011;25462;51.164;17.100;2023-07-20T16:15:40;2.50;;;1.30;;
39782;SDS011;25462;51.164;17.100;2023-07-20T16:20:47;3.00;;;0.90;;
39782;SDS011;25462;51.164;17.100;2023-07-20T16:25:51;4.60;;;1.40;;
39782;SDS011;25462;51.164;17.100;2023-07-20T16:30:55;1.70;;;0.90;;
39782;SDS011;25462;51.164;17.100;2023-07-20T16:36:00;3.60;;;1.30;;
39782;SDS011;25462;51.164;17.100;2023-07-20T16:41:07;4.80;;;1.30;;
39782;SDS011;25462;51.164;17.100;2023-07-20T16:46:12;5.60;;;1.90;;
39782;SDS011;25462;51.164;17.100;2023-07-20T16:51:19;2.90;;;1.40;;
39782;SDS011;25462;51.164;17.100;2023-07-20T16:56:23;3.70;;;1.50;;
39782;SDS011;25462;51.164;17.100;2023-07-20T17:01:26;2.20;;;1.10;;
39782;SDS011;25462;51.164;17.100;2023-07-20T17:06:30;1.70;;;1.10;;
39782;SDS011;25462;51.164;17.100;2023-07-20T17:11:34;1.70;;;1.10;;
39782;SDS011;25462;51.164;17.100;2023-07-20T17:16:38;2.60;;;1.20;;
39782;SDS011;25462;51.164;17.100;2023-07-20T17:21:43;1.90;;;1.30;;
39782;SDS011;25462;51.164;17.100;2023-07-20T17:26:48;2.10;;;1.00;;
39782;SDS011;25462;51.164;17.100;2023-07-20T17:32:12;2.40;;;1.20;;
39782;SDS011;25462;51.164;17.100;2023-07-20T17:37:16;1.70;;;1.00;;
39782;SDS011;25462;51.164;17.100;2023-07-20T17:42:21;3.80;;;1.20;;
39782;SDS011;25462;51.164;17.100;2023-07-20T17:47:28;2.20;;;0.90;;
39782;SDS011;25462;51.164;17.100;2023-07-20T17:52:32;3.40;;;1.30;;
39782;SDS011;25462;51.164;17.100;2023-07-20T17:57:37;1.60;;;1.10;;
39782;SDS011;25462;51.164;17.100;2023-07-20T18:02:41;2.10;;;0.90;;
39782;SDS011;25462;51.164;17.100;2023-07-20T18:07:47;1.70;;;1.00;;
39782;SDS011;25462;51.164;17.100;2023-07-20T18:12:51;1.50;;;1.20;;
39782;SDS011;25462;51.164;17.100;2023-07-20T18:17:55;2.40;;;0.90;;
39782;SDS011;25462;51.164;17.100;2023-07-20T18:23:00;2.10;;;1.00;;
39782;SDS011;25462;51.164;17.100;2023-07-20T18:28:07;4.00;;;1.00;;
39782;SDS011;25462;51.164;17.100;2023-07-20T18:33:11;3.70;;;1.20;;
39782;SDS011;25462;51.164;17.100;2023-07-20T18:38:15;3.60;;;1.40;;
39782;SDS011;25462;51.164;17.100;2023-07-20T18:43:20;1.80;;;1.00;;
39782;SDS011;25462;51.164;17.100;2023-07-20T18:48:24;2.90;;;1.30;;
39782;SDS011;25462;51.164;17.100;2023-07-20T18:53:29;1.90;;;0.90;;
39782;SDS011;25462;51.164;17.100;2023-07-20T18:58:34;3.10;;;1.30;;
39782;SDS011;25462;51.164;17.100;2023-07-20T19:03:38;2.20;;;1.40;;
39782;SDS011;25462;51.164;17.100;2023-07-20T19:08:42;3.10;;;1.90;;
39782;SDS011;25462;51.164;17.100;2023-07-20T19:13:47;4.30;;;1.70;;
39782;SDS011;25462;51.164;17.100;2023-07-20T19:18:52;2.60;;;1.40;;
39782;SDS011;25462;51.164;17.100;2023-07-20T19:23:59;2.70;;;1.40;;
39782;SDS011;25462;51.164;17.100;2023-07-20T19:29:04;4.40;;;1.30;;
39782;SDS011;25462;51.164;17.100;2023-07-20T19:34:08;2.60;;;1.50;;
39782;SDS011;25462;51.164;17.100;2023-07-20T19:39:13;6.70;;;1.60;;
39782;SDS011;25462;51.164;17.100;2023-07-20T19:44:18;2.60;;;1.50;;
39782;SDS011;25462;51.164;17.100;2023-07-20T19:49:25;5.70;;;1.40;;
39782;SDS011;25462;51.164;17.100;2023-07-20T19:54:38;2.80;;;1.40;;
39782;SDS011;25462;51.164;17.100;2023-07-20T19:59:44;2.60;;;1.50;;
39782;SDS011;25462;51.164;17.100;2023-07-20T20:04:50;2.30;;;1.40;;
39782;SDS011;25462;51.164;17.100;2023-07-20T20:09:59;6.90;;;1.30;;
39782;SDS011;25462;51.164;17.100;2023-07-20T20:15:05;5.00;;;2.20;;
39782;SDS011;25462;51.164;17.100;2023-07-20T20:20:10;3.90;;;1.90;;
39782;SDS011;25462;51.164;17.100;2023-07-20T20:25:16;2.80;;;1.70;;
39782;SDS011;25462;51.164;17.100;2023-07-20T20:30:20;3.50;;;1.80;;
39782;SDS011;25462;51.164;17.100;2023-07-20T20:35:27;5.10;;;1.70;;
39782;SDS011;25462;51.164;17.100;2023-07-20T20:40:35;2.60;;;1.40;;
39782;SDS011;25462;51.164;17.100;2023-07-20T20:45:40;2.90;;;1.80;;
39782;SDS011;25462;51.164;17.100;2023-07-20T20:50:44;3.70;;;1.70;;
39782;SDS011;25462;51.164;17.100;2023-07-20T20:55:49;5.60;;;3.40;;
39782;SDS011;25462;51.164;17.100;2023-07-20T21:00:59;4.20;;;2.70;;
39782;SDS011;25462;51.164;17.100;2023-07-20T21:06:06;3.20;;;2.10;;
39782;SDS011;25462;51.164;17.100;2023-07-20T21:11:10;4.70;;;1.80;;
39782;SDS011;25462;51.164;17.100;2023-07-20T21:16:14;3.90;;;1.50;;
39782;SDS011;25462;51.164;17.100;2023-07-20T21:21:22;3.70;;;1.30;;
39782;SDS011;25462;51.164;17.100;2023-07-20T21:26:26;8.10;;;1.90;;
39782;SDS011;25462;51.164;17.100;2023-07-20T21:31:30;3.80;;;1.80;;
39782;SDS011;25462;51.164;17.100;2023-07-20T21:36:33;3.10;;;1.40;;
39782;SDS011;25462;51.164;17.100;2023-07-20T21:41:37;2.80;;;1.60;;
39782;SDS011;25462;51.164;17.100;2023-07-20T21:46:41;2.90;;;1.80;;
39782;SDS011;25462;51.164;17.100;2023-07-20T21:51:45;3.50;;;1.60;;
39782;SDS011;25462;51.164;17.100;2023-07-20T21:56:49;3.10;;;1.40;;
39782;SDS011;25462;51.164;17.100;2023-07-20T22:01:53;4.10;;;1.80;;
39782;SDS011;25462;51.164;17.100;2023-07-20T22:07:02;3.30;;;1.80;;
39782;SDS011;25462;51.164;17.100;2023-07-20T22:12:17;5.20;;;1.90;;
39782;SDS011;25462;51.164;17.100;2023-07-20T22:17:21;4.10;;;1.90;;
39782;SDS011;25462;51.164;17.100;2023-07-20T22:22:24;3.40;;;1.90;;
39782;SDS011;25462;51.164;17.100;2023-07-20T22:27:28;3.70;;;2.20;;
39782;SDS011;25462;51.164;17.100;2023-07-20T22:32:32;3.10;;;2.50;;
39782;SDS011;25462;51.164;17.100;2023-07-20T22:37:36;4.10;;;1.90;;
39782;SDS011;25462;51.164;17.100;2023-07-20T22:42:40;3.40;;;2.10;;
39782;SDS011;25462;51.164;17.100;2023-07-20T22:47:45;2.90;;;2.00;;
39782;SDS011;25462;51.164;17.100;2023-07-20T22:52:50;4.20;;;2.20;;
39782;SDS011;25462;51.164;17.100;2023-07-20T22:57:54;3.40;;;2.30;;
39782;SDS011;25462;51.164;17.100;2023-07-20T23:02:58;5.10;;;2.60;;
39782;SDS011;25462;51.164;17.100;2023-07-20T23:08:02;3.70;;;2.50;;
39782;SDS011;25462;51.164;17.100;2023-07-20T23:13:06;3.60;;;2.10;;
39782;SDS011;25462;51.164;17.100;2023-07-20T23:18:10;5.00;;;2.30;;
39782;SDS011;25462;51.164;17.100;2023-07-20T23:23:14;3.80;;;2.90;;
39782;SDS011;25462;51.164;17.100;2023-07-20T23:28:18;3.30;;;2.30;;
39782;SDS011;25462;51.164;17.100;2023-07-20T23:33:23;3.80;;;2.70;;
39782;SDS011;25462;51.164;17.100;2023-07-20T23:38:27;4.90;;;3.00;;
39782;SDS011;25462;51.164;17.100;2023-07-20T23:43:30;6.00;;;2.90;;
39782;SDS011;25462;51.164;17.100;2023-07-20T23:48:34;5.70;;;2.90;;
39782;SDS011;25462;51.164;17.100;2023-07-20T23:53:48;4.00;;;2.80;;
39782;SDS011;25462;51.164;17.100;2023-07-20T23:58:54;5.90;;;2.50;;
